AirNav   TITAN Aviation Fuels
 
 1143 users online  

05AZ Yuma Regional Medical Center Heliport
Yuma, Arizona, USA

GOING TO YUMA?


FAA INFORMATION EFFECTIVE 08 SEPTEMBER 2022

Location

FAA Identifier: 05AZ
Lat/Long: 32-41-01.0400N 114-38-06.2100W
32-41.017333N 114-38.103500W
32.6836222,-114.6350583
(estimated)
Elevation: 200 ft. / 61 m (estimated)
Variation: 13E (1985)
From city: 4 miles SW of YUMA, AZ
Time zone: UTC -7 (year round; does not observe DST)
Zip code: 85364

Heliport Operations

Heliport use: Private use, MEDICAL.
Activation date: 04/1973
Control tower: no
ARTCC: LOS ANGELES CENTER
FSS: PRESCOTT FLIGHT SERVICE STATION
Attendance: UNATNDD
Wind indicator: yes
Segmented circle: yes

Nearby radio navigation aids

VOR radial/distance  VOR name  Freq  Var
BZAr184/5.3BARD VORTAC116.8014E

Heliport Services

Airframe service: NONE
Powerplant service: NONE

Runway Information

Helipad H1

Dimensions: 40 x 40 ft. / 12 x 12 m
Surface: concrete
Latitude: 32-40.969500N
Longitude: 114-38.063833W
Elevation: 200.0 ft.
Traffic pattern: leftleft

Heliport Ownership and Management from official FAA records

Ownership: Privately-owned
Owner: YUMA REGIONAL MEDICAL CENTER
2400 AVE A
YUMA, AZ 85364
Phone 928-344-2000
Manager: HAL PLEMONS
2400 AVE A
YUMA, AZ 85364
Phone (928) 336-7165

Additional Remarks

A52-H1 HOSPITAL BLDG LGTD.
FOR CD CTC LOS ANGELES ARTCC AT 661-575-2079.

Instrument Procedures

There are no published instrument procedures at 05AZ.

Some nearby airports with instrument procedures:

KNYL - Yuma Marine Corps Air Station/Yuma International Airport (2 nm SE)
KLGF - Laguna Army Airfield (Yuma Proving Ground) (16 nm NE)
KBWC - Brawley Municipal Airport (48 nm NW)
KIPL - Imperial County Airport (48 nm W)
KCLR - Cliff Hatfield Memorial Airport (52 nm NW)
 
Loc | Ops | Rwys | IFR | FBO | Links
Com | Nav | Svcs | Stats | Notes
Area around 05AZ (Yuma Regional Medical Center Heliport)
 
Road maps at: MapQuest Bing Google
 
Aerial photo
No photo
 
Sectional chart

 
Airport distance calculator
Flying to Yuma Regional Medical Center Heliport? Find the distance to fly.

From to 05AZ

Sunrise and sunset
Times for 02-Oct-2022
 Local
(UTC-7)
 Zulu
(UTC)
Morning civil twilight06:1013:10
Sunrise06:3413:34
Sunset18:2101:21
Evening civil twilight18:4601:46

Current date and time
Zulu (UTC)  02-Oct-2022 22:06:11
Local (UTC-7)  02-Oct-2022 15:06:11
 
METAR
KNYL 
3nm S 
022157Z AUTO VRB05KT 10SM CLR 36/18 A2979 RMK AO2 SLP083 T03560178
KNOZ 
14nm SE 
022059Z AUTO VRB04KT 10SM BKN070 36/17 A2982 RMK AO2 SLP046 T03610167 58022
KLGF 
16nm NE 
022155Z AUTO 06008KT M M SCT080 36/15 A2979 RMK AO2 SLP084 T03590145 RVRNO PWINO TSNO $
TAF
KNYL 
3nm S 
0215/0315 16006KT 9999 SKC QNH2975INS BECMG 0223/0301 20008KT 9999 FEW080 QNH2975INS FM030630 VRB05KT 9999 SKC QNH2983INS T36/0221Z T25/0313Z
NOTAMs
Click for the latest NOTAMs
NOTAMs are issued by the DoD/FAA and will open in a separate window not controlled by AirNav.

 

 
 

Would you like to see your business listed on this page?

 If your business provides an interesting product or service to pilots, flight crews, aircraft, or users of the Yuma Regional Medical Center Heliport, you should consider listing it here.  To start the listing process, click on the button below
 
Add a business
 

Other Pages about Yuma Regional Medical Center Heliport

Update a link
 
Copyright © AirNav, LLC. All rights reserved. Privacy Policy  Contact